ETNT

Wittmundhafen Airport

Germany
METAR ETNT 222120Z 21008KT 9999 FEW030 SCT250 16/13 Q1008 BLU+
Observed Flight Rules
Apr-22 @ 21:20 UTC (37 minutes ago) Visual Flight Rules
Wind Visibility Clouds
210° at 8 knots 10,000+ meters
  • Few at 3,000' AGL
  • Scattered at 25,000' AGL
Temperatures Readings
Current 16°C / 61°F
Dewpoint 13°C / 55°F
Humidity 83%
Altimeter 29.76" Hg
Pressure 1008 hPa
Elevation 12
METAR ETNT 222120Z 21008KT 9999 FEW030 SCT250 16/13 Q1008 BLU+
Observed Flight Rules
Apr-22 @ 21:20 UTC
(37 minutes ago)
VFR
Wind Visibility
210° at 8 knots 10,000+ meters
Clouds
  • Few at 3,000' AGL
  • Scattered at 25,000' AGL
Temperature Dewpoint
16°C / 61°F 13°C / 55°F
Humidity Altimeter Pressure
83% 29.76" Hg 1008 hPa